EGKB/BQH METAR and TAF weather

Enter ICAO airport designator
Station Type Date Time Source
EGKB METAR 2020/09/22 21:20 UTC NOAA

EGKB 222120Z 22007KT 190V260 9999 BKN020 16/14 Q1006


Station Type Date Time Source
EGKB Decoded METAR 2020/09/22 21:20 UTC NOAA

Biggin Hill , United Kingdom (EGKB) 51-19N 000-02E
Sep 22, 2020 - 05:20 PM EDT / 2020.09.22 2120 UTC
Wind: from the SW (220 degrees) at 8 MPH (7 KT) (direction variable):0
Visibility: greater than 7 mile(s):0
Sky conditions: mostly cloudy
Temperature: 60 F (16 C)
Dew Point: 57 F (14 C)
Relative Humidity: 87%
Pressure (altimeter): 29.71 in. Hg (1006 hPa)
ob: EGKB 222120Z 22007KT 190V260 9999 BKN020 16/14 Q1006
cycle: 21

Station Type Date Time Source
EGKB TAF 2020/08/09 21:40 UTC NOAA

TAF EGKB 092127Z 0921/1021 CNL

Example: see airport list